createdAt,value
2022-11-16T00:01:41.101Z,1388.247491638796
2022-11-16T00:08:11.699Z,1411.123745819398
2022-11-16T00:14:40.720Z,1351.9665551839464
2022-11-16T00:21:09.254Z,1325.7892976588628
2022-11-16T00:27:48.600Z,1381.685618729097
2022-11-16T00:34:17.106Z,1381.0133779264213
2022-11-16T00:44:13.321Z,1351.0735785953177
2022-11-16T00:50:53.007Z,1339.7859531772576
2022-11-16T00:57:22.073Z,1345.505016722408
2022-11-16T01:04:26.060Z,1389.2709030100334
2022-11-16T01:17:16.146Z,1357.5852842809365
2022-11-16T01:23:57.566Z,1379.28762541806
2022-11-16T01:34:18.071Z,1391.8896321070233
2022-11-16T01:40:46.110Z,1399.8160535117056
2022-11-16T01:49:50.944Z,1344.0
2022-11-16T02:00:08.566Z,1366.6053511705686
2022-11-16T02:06:37.877Z,1362.160535117057
2022-11-16T02:13:51.415Z,1361.8695652173913
2022-11-16T02:20:22.075Z,1355.1471571906354
2022-11-16T02:27:04.096Z,1283.0969899665552
2022-11-16T02:33:32.975Z,1305.2307692307693
2022-11-16T02:40:01.650Z,1338.4013377926422
2022-11-16T02:51:27.237Z,1328.4983277591973
2022-11-16T03:01:39.213Z,1427.0969899665552
2022-11-16T03:23:15.186Z,1491.5819397993312
2022-11-16T03:29:43.512Z,1491.0401337792641
2022-11-16T03:42:31.319Z,1634.0969899665552
2022-11-16T03:49:01.377Z,1711.4147157190635
2022-11-16T03:55:33.129Z,1679.076923076923
2022-11-16T04:02:01.127Z,1890.9030100334448
2022-11-16T04:08:30.168Z,1861.5752508361204
2022-11-16T04:18:22.103Z,1926.923076923077
2022-11-16T04:26:37.113Z,2059.735785953177
2022-11-16T04:33:06.079Z,2050.7759197324413
2022-11-16T04:39:35.293Z,2162.016722408027
2022-11-16T04:46:04.242Z,2207.076923076923
2022-11-16T05:04:20.337Z,2343.903010033445
2022-11-16T05:12:12.121Z,2440.9163879598664
2022-11-16T05:20:37.768Z,2457.170568561873
2022-11-16T05:27:13.458Z,2547.511705685619
2022-11-16T05:33:41.729Z,2554.344481605351
2022-11-16T05:44:45.956Z,2856.351170568562
2022-11-16T05:51:14.310Z,2978.0267558528426
2022-11-16T05:57:44.731Z,2976.913043478261
2022-11-16T06:08:37.764Z,3237.551839464883
2022-11-16T06:15:25.227Z,3307.8361204013377
2022-11-16T06:21:52.261Z,3333.0802675585282
2022-11-16T06:32:59.004Z,3329.7491638795987
2022-11-16T06:39:26.410Z,3344.5585284280937
2022-11-16T06:45:53.257Z,3415.655518394649
2022-11-16T06:57:08.581Z,3378.3311036789296
2022-11-16T07:08:18.176Z,3325.846153846154
2022-11-16T07:14:45.948Z,3287.879598662207
2022-11-16T07:26:13.646Z,3257.4682274247493
2022-11-16T07:32:41.451Z,3331.7558528428094
2022-11-16T07:39:08.300Z,3430.6755852842807
2022-11-16T07:45:35.552Z,3305.2274247491637
2022-11-16T07:52:34.242Z,3336.76254180602
2022-11-16T07:59:01.014Z,3369.38127090301
2022-11-16T08:05:28.088Z,3386.1571906354516
2022-11-16T08:11:55.369Z,3387.0200668896323
2022-11-16T08:18:22.623Z,3427.655518394649
2022-11-16T08:24:57.761Z,3427.274247491639
2022-11-16T08:31:24.906Z,3435.0702341137126
2022-11-16T08:37:51.525Z,3424.0535117056857
2022-11-16T08:44:18.513Z,3400.665551839465
2022-11-16T08:51:15.327Z,3370.454849498328
2022-11-16T08:57:43.485Z,3339.6020066889632
2022-11-16T09:04:10.266Z,3385.3244147157193
2022-11-16T09:14:23.454Z,3395.066889632107
2022-11-16T09:20:49.964Z,3399.8829431438126
2022-11-16T09:27:22.021Z,3466.665551839465
2022-11-16T09:37:18.798Z,3527.23745819398
2022-11-16T09:43:46.394Z,3500.5183946488296
2022-11-16T09:50:16.401Z,3493.2441471571906
2022-11-16T09:56:43.017Z,3500.5585284280937
2022-11-16T10:10:03.058Z,3534.4615384615386
2022-11-16T10:17:07.859Z,3576.2909698996655
2022-11-16T10:23:38.757Z,3457.063545150502
2022-11-16T10:30:05.317Z,3529.3645484949834
2022-11-16T10:36:32.197Z,3456.6020066889632
2022-11-16T10:42:58.739Z,3535.2341137123744
2022-11-16T10:49:25.776Z,3481.7859531772574
2022-11-16T11:02:50.753Z,3631.063545150502
2022-11-16T11:09:17.966Z,3609.010033444816
2022-11-16T11:15:45.405Z,3552.551839464883
2022-11-16T11:22:20.042Z,3580.344481605351
2022-11-16T11:42:41.187Z,3603.792642140468
2022-11-16T11:49:08.332Z,3754.3745819397996
2022-11-16T11:55:36.044Z,3460.9765886287623
2022-11-16T12:06:56.397Z,3321.9732441471574
2022-11-16T12:13:23.460Z,3141.1003344481605
2022-11-16T12:24:36.892Z,3140.4280936454848
2022-11-16T12:31:03.901Z,3219.591973244147
2022-11-16T12:37:31.281Z,3117.0200668896323
2022-11-16T12:43:58.260Z,3112.705685618729
2022-11-16T12:54:19.827Z,3051.561872909699
2022-11-16T13:00:47.390Z,2898.5016722408027
2022-11-16T13:25:08.639Z,2456.1973244147157
2022-11-16T13:31:36.679Z,2430.6521739130435
2022-11-16T13:38:03.679Z,2518.5652173913045
2022-11-16T13:44:30.991Z,2551.0535117056857
2022-11-16T13:50:57.717Z,2445.8528428093646
2022-11-16T14:02:28.515Z,2489.7491638795987
2022-11-16T14:08:56.300Z,2415.6622073578596
2022-11-16T14:15:24.064Z,2348.4682274247493
2022-11-16T14:21:50.882Z,2275.7157190635453
2022-11-16T14:42:03.439Z,2053.14381270903
2022-11-16T14:48:30.998Z,1921.0434782608695
2022-11-16T14:54:58.952Z,1919.628762541806
2022-11-16T15:01:26.016Z,1904.1270903010034
2022-11-16T15:07:52.952Z,1857.7926421404682
2022-11-16T15:27:51.214Z,1911.6421404682274
2022-11-16T15:38:04.648Z,1875.4515050167224
2022-11-16T15:44:32.177Z,1849.8060200668897
2022-11-16T15:56:38.943Z,1805.046822742475
2022-11-16T16:19:09.731Z,1762.7056856187291
2022-11-16T16:30:56.452Z,1867.1939799331103
2022-11-16T16:37:25.105Z,1848.953177257525
2022-11-16T16:43:56.681Z,4110.993311036789
2022-11-16T16:50:27.384Z,2812.9464882943143
2022-11-16T16:56:56.608Z,2335.545150501672
2022-11-16T17:06:07.579Z,2778.4916387959865
2022-11-16T17:12:41.444Z,1829.7090301003345
2022-11-16T17:19:08.625Z,1699.4046822742475
2022-11-16T17:25:37.779Z,1620.5117056856188
2022-11-16T17:40:18.781Z,1480.103678929766
2022-11-16T17:46:48.570Z,1596.9832775919733
2022-11-16T17:55:34.561Z,1485.1404682274247
2022-11-16T18:02:03.483Z,1439.4180602006688
2022-11-16T18:08:33.244Z,1486.2341137123747
2022-11-16T18:17:09.430Z,1481.7290969899666
2022-11-16T18:23:43.179Z,1464.933110367893
2022-11-16T18:34:35.656Z,1447.675585284281
2022-11-16T18:41:03.614Z,1413.0301003344482
2022-11-16T18:47:31.216Z,1342.9264214046823
2022-11-16T18:53:58.252Z,1281.9030100334448
2022-11-16T19:00:25.011Z,1302.371237458194
2022-11-16T19:06:52.083Z,1314.8327759197325
2022-11-16T19:13:19.331Z,1336.9665551839464
2022-11-16T19:19:48.312Z,1302.2207357859531
2022-11-16T19:33:49.923Z,1098.4113712374583
2022-11-16T19:42:41.097Z,897.2107023411371
2022-11-16T19:52:46.742Z,761.4983277591973
2022-11-16T20:04:23.725Z,677.4782608695652
2022-11-16T20:10:51.130Z,635.9598662207358
2022-11-16T20:17:18.252Z,607.9866220735786
2022-11-16T20:23:50.116Z,631.7859531772575
2022-11-16T20:30:52.231Z,707.3879598662207
2022-11-16T20:37:19.791Z,628.8361204013378
2022-11-16T20:49:39.169Z,739.9866220735786
2022-11-16T21:00:28.150Z,678.0802675585285
2022-11-16T21:06:55.106Z,761.2775919732442
2022-11-16T21:13:22.674Z,764.5986622073578
2022-11-16T21:20:05.680Z,839.628762541806
2022-11-16T21:26:48.310Z,787.2742474916388
2022-11-16T21:33:16.897Z,794.2173913043479
2022-11-16T21:39:44.694Z,746.989966555184
2022-11-16T21:46:13.026Z,710.9197324414715
2022-11-16T21:52:41.242Z,746.4782608695652
2022-11-16T21:59:09.031Z,763.133779264214
2022-11-16T22:10:49.549Z,776.428093645485
2022-11-16T22:28:40.712Z,772.2441471571906
2022-11-16T22:38:29.717Z,787.4046822742475
2022-11-16T22:44:59.040Z,713.5785953177258
2022-11-16T22:51:27.271Z,738.9832775919732
2022-11-16T22:57:54.799Z,757.9665551839465
2022-11-16T23:04:23.082Z,740.247491638796
2022-11-16T23:10:50.893Z,729.1003344481605
2022-11-16T23:23:25.627Z,810.7324414715719
2022-11-16T23:29:53.068Z,798.4715719063545
2022-11-16T23:36:21.297Z,866.4782608695652
2022-11-16T23:42:49.066Z,840.7324414715719
